Time;durP1;ratioP1;P1;durP2;ratioP2;P2;SDS_P1;SDS_P2;PMS_P1;PMS_P2;Temp;Humidity;BMP_temperature;BMP_pressure;BME280_temperature;BME280_humidity;BME280_pressure;Samples;Min_cycle;Max_cycle;Signal;HPM_P1;HPM_P2
2024/01/06 00:02:13;;;;;;;34.23;21.97;;;2.80;99.90;;;;;;5086709;28;20734;-79
2024/01/06 00:04:41;;;;;;;33.00;20.80;;;2.80;99.90;;;;;;5089202;28;20736;-78
2024/01/06 00:07:09;;;;;;;28.93;20.37;;;2.80;99.90;;;;;;5088672;28;20244;-78
2024/01/06 00:09:35;;;;;;;35.60;21.10;;;2.80;99.90;;;;;;5088506;28;20318;-78
2024/01/06 00:12:03;;;;;;;33.60;20.50;;;2.80;99.90;;;;;;5089390;28;20213;-79
2024/01/06 00:14:29;;;;;;;33.57;21.53;;;2.80;99.90;;;;;;5088807;28;20230;-79
2024/01/06 00:16:56;;;;;;;29.77;20.40;;;2.80;99.90;;;;;;5088589;28;20762;-79
2024/01/06 00:19:23;;;;;;;33.73;21.40;;;2.80;99.90;;;;;;5089073;28;20245;-79
2024/01/06 00:21:51;;;;;;;32.53;21.27;;;2.80;99.90;;;;;;5088465;28;20774;-79
2024/01/06 00:24:18;;;;;;;32.77;21.70;;;2.80;99.90;;;;;;5088643;28;20681;-79
2024/01/06 00:26:45;;;;;;;29.47;19.93;;;2.80;99.90;;;;;;5087809;28;20195;-79
2024/01/06 00:29:12;;;;;;;33.63;21.80;;;2.80;99.90;;;;;;5088697;28;20297;-79
2024/01/06 00:31:39;;;;;;;33.20;21.67;;;2.80;99.90;;;;;;5087665;28;20206;-79
2024/01/06 00:34:06;;;;;;;32.40;20.73;;;2.90;99.90;;;;;;5087707;28;20257;-79
2024/01/06 00:36:33;;;;;;;33.10;20.90;;;2.80;99.90;;;;;;5087870;28;20321;-79
2024/01/06 00:39:01;;;;;;;33.80;21.33;;;2.80;99.90;;;;;;5088142;28;20233;-79
2024/01/06 00:41:28;;;;;;;33.90;21.13;;;2.80;99.90;;;;;;5087967;28;20285;-79
2024/01/06 00:43:55;;;;;;;32.50;20.23;;;2.80;99.90;;;;;;5088413;28;20298;-79
2024/01/06 00:46:22;;;;;;;33.30;20.80;;;2.70;99.90;;;;;;5088191;28;20290;-79
2024/01/06 00:48:48;;;;;;;28.97;19.90;;;2.80;99.90;;;;;;5088037;28;20213;-79
2024/01/06 00:51:15;;;;;;;30.00;20.83;;;2.70;99.90;;;;;;5087952;28;20298;-79
2024/01/06 00:53:42;;;;;;;34.07;22.43;;;2.70;99.90;;;;;;5088009;28;20199;-78
2024/01/06 00:56:10;;;;;;;29.57;20.50;;;2.70;99.90;;;;;;5087828;28;20758;-79
2024/01/06 00:58:37;;;;;;;30.17;19.83;;;2.70;99.90;;;;;;5087727;28;20270;-79
2024/01/06 01:01:04;;;;;;;30.83;20.90;;;2.70;99.90;;;;;;5087654;28;20255;-77
2024/01/06 01:03:31;;;;;;;30.97;20.57;;;2.70;99.90;;;;;;5087572;28;20293;-79
2024/01/06 01:05:58;;;;;;;30.93;20.93;;;2.70;99.90;;;;;;5087744;28;20245;-79
2024/01/06 01:08:25;;;;;;;30.13;19.30;;;2.70;99.90;;;;;;5087282;28;20230;-79
2024/01/06 01:10:52;;;;;;;31.10;20.13;;;2.70;99.90;;;;;;5087899;28;20226;-79
2024/01/06 01:13:20;;;;;;;30.33;19.40;;;2.70;99.90;;;;;;5087851;28;20242;-78
2024/01/06 01:15:47;;;;;;;31.80;19.00;;;2.70;99.90;;;;;;5088015;28;20657;-78
2024/01/06 01:18:14;;;;;;;29.93;19.30;;;2.70;99.90;;;;;;5087706;28;20255;-78
2024/01/06 01:20:42;;;;;;;31.40;19.77;;;2.70;99.90;;;;;;5087436;28;20233;-78
2024/01/06 01:23:09;;;;;;;28.57;19.10;;;2.70;99.90;;;;;;5087810;28;20229;-79
2024/01/06 01:25:36;;;;;;;30.60;20.00;;;2.70;99.90;;;;;;5087401;28;20638;-79
2024/01/06 01:28:03;;;;;;;30.43;18.40;;;2.70;99.90;;;;;;5087831;28;20285;-78
2024/01/06 01:30:32;;;;;;;28.77;18.57;;;2.70;99.90;;;;;;5087021;28;20234;-78
2024/01/06 01:32:59;;;;;;;32.27;20.37;;;2.70;99.90;;;;;;5087157;28;20194;-78
2024/01/06 01:35:25;;;;;;;29.77;18.57;;;2.70;99.90;;;;;;5087992;28;20317;-77
2024/01/06 01:37:52;;;;;;;30.33;19.23;;;2.70;99.90;;;;;;5087622;28;20679;-77
2024/01/06 01:40:19;;;;;;;27.80;18.10;;;2.70;99.90;;;;;;5091200;28;20731;-77
2024/01/06 01:42:46;;;;;;;26.40;18.43;;;2.70;99.90;;;;;;5091446;28;20234;-78
2024/01/06 01:45:13;;;;;;;28.40;18.73;;;2.70;99.90;;;;;;5091884;28;20210;-78
2024/01/06 01:47:41;;;;;;;28.37;18.13;;;2.70;99.90;;;;;;5091814;28;20715;-77
2024/01/06 01:50:09;;;;;;;27.73;18.33;;;2.60;99.90;;;;;;5091504;28;20301;-77
2024/01/06 01:52:38;;;;;;;27.63;18.10;;;2.60;99.90;;;;;;5091143;28;20207;-77
2024/01/06 01:55:05;;;;;;;32.27;18.80;;;2.60;99.90;;;;;;5090964;28;20230;-77
2024/01/06 01:57:33;;;;;;;29.30;17.90;;;2.60;99.90;;;;;;5090805;28;20202;-79
2024/01/06 02:00:02;;;;;;;26.40;18.03;;;2.60;99.90;;;;;;5091173;28;20238;-78
2024/01/06 02:02:30;;;;;;;27.67;17.10;;;2.60;99.90;;;;;;5091275;28;20211;-78
2024/01/06 02:04:58;;;;;;;25.63;17.57;;;2.60;99.90;;;;;;5091277;28;20806;-79
2024/01/06 02:07:25;;;;;;;30.50;17.80;;;2.50;99.90;;;;;;5090793;28;20764;-78
2024/01/06 02:09:54;;;;;;;24.40;17.10;;;2.50;99.90;;;;;;5090680;28;20360;-78
2024/01/06 02:12:21;;;;;;;28.07;18.23;;;2.50;99.90;;;;;;5091119;28;20202;-78
2024/01/06 02:14:48;;;;;;;28.17;18.53;;;2.50;99.90;;;;;;5091132;28;20206;-79
2024/01/06 02:17:15;;;;;;;29.40;17.93;;;2.50;99.90;;;;;;5090857;28;20295;-79
2024/01/06 02:19:42;;;;;;;29.10;17.70;;;2.50;99.90;;;;;;5091176;28;20245;-78
2024/01/06 02:22:10;;;;;;;23.93;16.27;;;2.60;99.90;;;;;;5090810;28;20294;-79
2024/01/06 02:24:37;;;;;;;27.73;17.77;;;2.60;99.90;;;;;;5091227;28;20306;-79
2024/01/06 02:27:05;;;;;;;25.87;17.43;;;2.60;99.90;;;;;;5090956;28;20289;-79
2024/01/06 02:29:31;;;;;;;30.17;18.27;;;2.60;99.90;;;;;;5090674;28;20760;-78
2024/01/06 02:31:58;;;;;;;28.30;17.63;;;2.60;99.90;;;;;;5090341;28;20632;-78
2024/01/06 02:34:25;;;;;;;24.73;17.07;;;2.60;99.90;;;;;;5090628;28;20696;-79
2024/01/06 02:36:52;;;;;;;23.83;16.93;;;2.60;99.90;;;;;;5090652;28;20329;-77
2024/01/06 02:39:23;;;;;;;24.87;16.37;;;2.60;99.90;;;;;;5090640;28;20264;-75
2024/01/06 02:41:50;;;;;;;22.23;16.43;;;2.60;99.90;;;;;;5090515;28;20195;-75
2024/01/06 02:44:17;;;;;;;26.80;17.70;;;2.60;99.90;;;;;;5090427;28;20759;-76
2024/01/06 02:46:44;;;;;;;24.90;17.13;;;2.60;99.90;;;;;;5090556;28;20209;-75
2024/01/06 02:49:11;;;;;;;26.63;17.33;;;2.60;99.90;;;;;;5089629;28;20202;-75
2024/01/06 02:51:37;;;;;;;25.43;17.57;;;2.60;99.90;;;;;;5089482;28;20289;-78
2024/01/06 02:54:04;;;;;;;27.63;17.77;;;2.60;99.90;;;;;;5089953;28;20297;-78
2024/01/06 02:56:33;;;;;;;25.33;17.33;;;2.60;99.90;;;;;;5089974;28;20697;-75
2024/01/06 02:58:59;;;;;;;25.23;16.43;;;2.60;99.90;;;;;;5090589;28;21088;-75
2024/01/06 03:01:26;;;;;;;25.33;16.47;;;2.60;99.90;;;;;;5090076;28;20323;-75
2024/01/06 03:03:53;;;;;;;25.60;17.00;;;2.50;99.90;;;;;;5090245;28;20210;-75
2024/01/06 03:06:20;;;;;;;24.27;15.97;;;2.60;99.90;;;;;;5088705;28;20845;-75
2024/01/06 03:08:47;;;;;;;26.63;17.20;;;2.60;99.90;;;;;;5089788;28;20695;-75
2024/01/06 03:11:14;;;;;;;25.43;16.50;;;2.60;99.90;;;;;;5089594;28;20224;-77
2024/01/06 03:13:42;;;;;;;28.67;18.07;;;2.60;99.90;;;;;;5089672;28;20235;-78
2024/01/06 03:16:12;;;;;;;25.60;17.23;;;2.60;99.90;;;;;;5089806;28;20230;-78
2024/01/06 03:18:38;;;;;;;29.23;17.53;;;2.60;99.90;;;;;;5090007;28;20198;-78
2024/01/06 03:21:05;;;;;;;28.03;17.80;;;2.60;99.90;;;;;;5089747;28;20206;-78
2024/01/06 03:23:32;;;;;;;23.17;16.33;;;2.60;99.90;;;;;;5089189;28;20282;-77
2024/01/06 03:25:59;;;;;;;24.80;16.93;;;2.60;99.90;;;;;;5089435;28;20295;-80
2024/01/06 03:28:26;;;;;;;23.30;16.03;;;2.60;99.90;;;;;;5089443;28;20242;-80
2024/01/06 03:30:54;;;;;;;27.60;15.80;;;2.60;99.90;;;;;;5087332;28;20247;-80
2024/01/06 03:33:21;;;;;;;24.60;16.93;;;2.60;99.90;;;;;;5069551;28;20235;-79
2024/01/06 03:35:48;;;;;;;26.53;16.63;;;2.50;99.90;;;;;;5079323;28;20218;-78
2024/01/06 03:38:15;;;;;;;26.60;16.47;;;2.50;99.90;;;;;;5089317;28;20225;-78
2024/01/06 03:40:42;;;;;;;27.50;16.97;;;2.50;99.90;;;;;;5089617;28;20230;-79
2024/01/06 03:43:09;;;;;;;25.17;16.00;;;2.50;99.90;;;;;;5089442;28;20238;-79
2024/01/06 03:45:35;;;;;;;27.40;16.67;;;2.50;99.90;;;;;;5089646;28;20290;-79
2024/01/06 03:48:04;;;;;;;23.43;16.47;;;2.50;99.90;;;;;;5088743;28;20274;-79
2024/01/06 03:50:31;;;;;;;27.13;16.27;;;2.50;99.90;;;;;;5088882;28;20564;-77
2024/01/06 03:52:58;;;;;;;27.23;17.23;;;2.50;99.90;;;;;;5088885;28;20289;-77
2024/01/06 03:55:25;;;;;;;24.17;16.30;;;2.50;99.90;;;;;;5088921;28;20306;-77
2024/01/06 03:57:52;;;;;;;27.50;16.27;;;2.50;99.90;;;;;;5088782;28;20309;-77
2024/01/06 04:00:19;;;;;;;24.67;15.97;;;2.50;99.90;;;;;;5088750;28;20341;-77
2024/01/06 04:02:46;;;;;;;25.43;16.37;;;2.50;99.90;;;;;;5088578;28;20203;-77
2024/01/06 04:05:14;;;;;;;25.57;16.70;;;2.50;99.90;;;;;;5088681;28;20230;-77
2024/01/06 04:07:41;;;;;;;26.13;16.03;;;2.50;99.90;;;;;;5088503;28;20220;-77
2024/01/06 04:10:09;;;;;;;24.90;16.80;;;2.50;99.90;;;;;;5088250;28;20236;-78
2024/01/06 04:12:35;;;;;;;26.27;16.87;;;2.50;99.90;;;;;;5088997;28;20293;-77
2024/01/06 04:15:03;;;;;;;25.93;16.43;;;2.50;99.90;;;;;;5088644;28;20206;-77
2024/01/06 04:17:30;;;;;;;26.53;16.77;;;2.50;99.90;;;;;;5088497;28;20350;-78
2024/01/06 04:19:57;;;;;;;29.83;16.47;;;2.50;99.90;;;;;;5088834;28;20495;-77
2024/01/06 04:22:25;;;;;;;25.53;15.43;;;2.50;99.90;;;;;;5088370;28;20342;-78
2024/01/06 04:24:52;;;;;;;28.83;16.17;;;2.50;99.90;;;;;;5088777;28;20222;-77
2024/01/06 04:27:21;;;;;;;25.57;16.33;;;2.40;99.90;;;;;;5087817;28;20292;-77
2024/01/06 04:29:52;;;;;;;26.53;16.80;;;2.40;99.90;;;;;;5088411;28;20302;-78
2024/01/06 04:32:19;;;;;;;24.23;15.70;;;2.50;99.90;;;;;;5088394;28;20207;-79
2024/01/06 04:34:46;;;;;;;26.67;16.40;;;2.50;99.90;;;;;;5088288;28;20627;-77
2024/01/06 04:37:13;;;;;;;29.17;17.33;;;2.50;99.90;;;;;;5087752;28;20665;-78
2024/01/06 04:39:41;;;;;;;28.60;17.43;;;2.50;99.90;;;;;;5087609;28;20198;-78
2024/01/06 04:42:08;;;;;;;31.07;17.03;;;2.50;99.90;;;;;;5087676;28;20302;-77
2024/01/06 04:44:35;;;;;;;25.70;15.77;;;2.50;99.90;;;;;;5087790;28;20690;-77
2024/01/06 04:47:02;;;;;;;28.53;16.30;;;2.40;99.90;;;;;;5088165;28;20678;-77
2024/01/06 04:49:29;;;;;;;27.20;17.03;;;2.50;99.90;;;;;;5087663;28;20301;-78
2024/01/06 04:51:56;;;;;;;25.57;16.63;;;2.50;99.90;;;;;;5087886;28;20294;-78
2024/01/06 04:54:23;;;;;;;23.60;16.63;;;2.50;99.90;;;;;;5087887;28;20207;-79
2024/01/06 04:56:51;;;;;;;27.57;16.83;;;2.40;99.90;;;;;;5087406;28;20234;-79
2024/01/06 04:59:18;;;;;;;29.63;16.77;;;2.40;99.90;;;;;;5087668;28;20256;-79
2024/01/06 05:01:45;;;;;;;25.97;16.57;;;2.40;99.90;;;;;;5087685;28;20250;-79
2024/01/06 05:04:12;;;;;;;27.90;16.67;;;2.40;99.90;;;;;;5087228;28;20248;-79
2024/01/06 05:06:38;;;;;;;26.90;17.40;;;2.40;99.90;;;;;;5087479;28;20746;-79
2024/01/06 05:09:05;;;;;;;28.87;17.87;;;2.40;99.90;;;;;;5087416;28;20245;-78
2024/01/06 05:11:32;;;;;;;28.30;17.10;;;2.40;99.90;;;;;;5079672;28;20230;-79
2024/01/06 05:14:00;;;;;;;27.20;17.67;;;2.30;99.90;;;;;;5070540;28;20282;-79
2024/01/06 05:16:28;;;;;;;25.97;17.43;;;2.30;99.90;;;;;;5087215;28;20245;-79
2024/01/06 05:18:55;;;;;;;27.00;17.60;;;2.30;99.90;;;;;;5087622;28;20740;-78
2024/01/06 05:21:22;;;;;;;31.40;18.67;;;2.40;99.90;;;;;;5087509;28;20217;-78
2024/01/06 05:23:49;;;;;;;28.20;17.50;;;2.30;99.90;;;;;;5087347;28;20297;-78
2024/01/06 05:26:16;;;;;;;26.93;17.43;;;2.30;99.90;;;;;;5087137;28;20298;-78
2024/01/06 05:28:43;;;;;;;29.47;18.27;;;2.30;99.90;;;;;;5087243;28;20194;-78
2024/01/06 05:31:11;;;;;;;31.43;18.27;;;2.30;99.90;;;;;;5087333;28;20203;-79
2024/01/06 05:33:38;;;;;;;29.83;17.40;;;2.30;99.90;;;;;;5087522;28;20242;-79
2024/01/06 05:36:05;;;;;;;30.50;18.23;;;2.30;99.90;;;;;;5087604;28;20266;-79
2024/01/06 05:38:32;;;;;;;30.87;18.37;;;2.30;99.90;;;;;;5086912;28;20289;-78
2024/01/06 05:40:59;;;;;;;30.13;17.83;;;2.30;99.90;;;;;;5087564;28;20207;-80
2024/01/06 05:43:26;;;;;;;29.03;18.27;;;2.30;99.90;;;;;;5087233;28;20257;-80
2024/01/06 05:45:53;;;;;;;30.17;18.10;;;2.30;99.90;;;;;;5087506;28;20282;-80
2024/01/06 05:48:21;;;;;;;29.50;18.00;;;2.30;99.90;;;;;;5087586;28;20293;-77
2024/01/06 05:50:48;;;;;;;29.37;18.27;;;2.40;99.90;;;;;;5087220;28;20829;-77
2024/01/06 05:53:18;;;;;;;30.60;18.33;;;2.40;99.90;;;;;;5087123;28;20655;-80
2024/01/06 05:55:45;;;;;;;31.57;18.23;;;2.40;99.90;;;;;;5087405;28;20677;-82
2024/01/06 05:58:12;;;;;;;28.50;18.60;;;2.30;99.90;;;;;;5087280;28;20657;-78
2024/01/06 06:00:39;;;;;;;29.23;17.97;;;2.30;99.90;;;;;;5087483;28;20741;-81
2024/01/06 06:03:07;;;;;;;28.07;17.97;;;2.30;99.90;;;;;;5087400;28;20306;-82
2024/01/06 06:05:36;;;;;;;27.83;18.33;;;2.30;99.90;;;;;;5087427;28;20363;-82
2024/01/06 06:08:03;;;;;;;32.20;18.67;;;2.30;99.90;;;;;;5087171;28;20210;-81
2024/01/06 06:10:40;;;;;;;33.13;18.80;;;2.30;99.90;;;;;;5087232;28;21992;-81
2024/01/06 06:13:10;;;;;;;29.20;18.50;;;2.20;99.90;;;;;;5087675;28;20197;-81
2024/01/06 06:15:37;;;;;;;31.37;18.43;;;2.30;99.90;;;;;;5087413;28;20230;-80
2024/01/06 06:18:04;;;;;;;33.13;19.67;;;2.20;99.90;;;;;;5087272;28;20249;-79
2024/01/06 06:20:31;;;;;;;33.90;20.33;;;2.20;99.90;;;;;;5086951;28;20207;-79
2024/01/06 06:23:00;;;;;;;32.23;19.07;;;2.30;99.90;;;;;;5087234;28;20461;-79
2024/01/06 06:25:27;;;;;;;28.93;19.73;;;2.20;99.90;;;;;;5089337;28;20615;-79
2024/01/06 06:27:54;;;;;;;29.67;19.13;;;2.30;99.90;;;;;;5090866;28;20645;-79
2024/01/06 06:30:20;;;;;;;38.23;20.07;;;2.30;99.90;;;;;;5082669;28;20306;-79
2024/01/06 06:32:47;;;;;;;30.30;19.27;;;2.30;99.90;;;;;;5087523;28;20298;-78
2024/01/06 06:35:14;;;;;;;34.03;20.17;;;2.30;99.90;;;;;;5090536;28;20298;-78
2024/01/06 06:37:41;;;;;;;30.07;18.77;;;2.30;99.90;;;;;;5090069;28;20321;-80
2024/01/06 06:40:10;;;;;;;29.37;19.40;;;2.30;99.90;;;;;;5090774;28;20297;-83
2024/01/06 06:42:37;;;;;;;35.40;18.20;;;2.30;99.90;;;;;;5090393;28;20294;-81
2024/01/06 06:45:05;;;;;;;30.13;18.73;;;2.30;99.90;;;;;;5090859;28;20286;-81
2024/01/06 06:47:31;;;;;;;31.57;18.73;;;2.20;99.90;;;;;;5088537;28;20739;-76
2024/01/06 06:49:58;;;;;;;35.13;20.10;;;2.20;99.90;;;;;;5090336;28;20630;-76
2024/01/06 06:52:25;;;;;;;33.77;19.00;;;2.20;99.90;;;;;;5090207;28;20299;-76
2024/01/06 06:54:52;;;;;;;25.93;17.50;;;2.20;99.90;;;;;;5090431;28;20285;-76
2024/01/06 06:57:21;;;;;;;33.37;19.20;;;2.10;99.90;;;;;;5090216;28;20234;-76
2024/01/06 06:59:48;;;;;;;27.13;18.43;;;2.10;99.90;;;;;;5106882;28;20310;-78
2024/01/06 07:02:15;;;;;;;30.17;17.43;;;2.00;99.90;;;;;;5087947;28;20219;-79
2024/01/06 07:04:42;;;;;;;29.87;18.03;;;2.00;99.90;;;;;;5089696;28;20636;-78
2024/01/06 07:07:09;;;;;;;28.67;17.70;;;2.00;99.90;;;;;;5088593;28;20218;-78
2024/01/06 07:09:36;;;;;;;29.60;18.47;;;2.00;99.90;;;;;;5087607;28;20227;-79
2024/01/06 07:12:03;;;;;;;29.27;18.93;;;2.00;99.90;;;;;;5087998;28;20234;-78
2024/01/06 07:14:31;;;;;;;28.77;17.73;;;2.00;99.90;;;;;;5087981;28;20286;-79
2024/01/06 07:16:58;;;;;;;29.53;18.07;;;2.10;99.90;;;;;;5086693;28;20276;-79
2024/01/06 07:19:25;;;;;;;31.73;18.17;;;2.00;99.90;;;;;;5087684;28;20205;-79
2024/01/06 07:21:52;;;;;;;28.23;17.07;;;2.00;99.90;;;;;;5088000;28;20203;-78
2024/01/06 07:24:18;;;;;;;31.13;18.67;;;2.00;99.90;;;;;;5087588;28;20286;-78
2024/01/06 07:26:45;;;;;;;31.57;18.13;;;2.00;99.90;;;;;;5087306;28;20256;-78
2024/01/06 07:29:12;;;;;;;33.43;18.37;;;2.00;99.90;;;;;;5089980;28;20757;-79
2024/01/06 07:31:40;;;;;;;31.13;18.40;;;2.00;99.90;;;;;;5089255;28;20255;-78
2024/01/06 07:34:07;;;;;;;29.03;17.97;;;2.00;99.90;;;;;;5089728;28;20294;-80
2024/01/06 07:36:34;;;;;;;26.47;17.10;;;1.90;99.90;;;;;;5087823;28;20297;-79
2024/01/06 07:39:02;;;;;;;30.40;18.13;;;1.90;99.90;;;;;;5085492;28;20341;-78
2024/01/06 07:41:30;;;;;;;27.77;17.77;;;1.90;99.90;;;;;;5088904;28;20869;-78
2024/01/06 07:43:57;;;;;;;34.83;19.37;;;2.10;99.90;;;;;;5088896;28;21077;-78
2024/01/06 07:46:24;;;;;;;34.57;18.13;;;2.20;99.90;;;;;;5088711;28;20206;-78
2024/01/06 07:48:52;;;;;;;29.63;18.17;;;2.20;99.90;;;;;;5088596;28;20272;-77
2024/01/06 07:51:19;;;;;;;30.63;18.17;;;2.20;99.90;;;;;;5088837;28;20234;-77
2024/01/06 07:53:46;;;;;;;30.83;18.63;;;2.10;99.90;;;;;;5088387;28;21046;-77
2024/01/06 07:56:13;;;;;;;30.27;18.10;;;2.10;99.90;;;;;;5088548;28;20656;-78
2024/01/06 07:58:40;;;;;;;30.63;18.13;;;2.00;99.90;;;;;;5088546;28;20272;-77
2024/01/06 08:01:07;;;;;;;32.37;18.37;;;2.00;99.90;;;;;;5088494;28;20313;-77
2024/01/06 08:03:34;;;;;;;32.33;18.27;;;2.00;99.90;;;;;;5089067;28;20211;-77
2024/01/06 08:06:03;;;;;;;28.80;17.67;;;2.00;99.90;;;;;;5089091;28;20666;-77
2024/01/06 08:08:30;;;;;;;29.47;17.37;;;2.00;99.90;;;;;;5088206;28;20744;-77
2024/01/06 08:10:57;;;;;;;28.50;17.73;;;2.00;99.90;;;;;;5088820;28;20638;-77
2024/01/06 08:13:24;;;;;;;31.47;18.53;;;2.00;99.90;;;;;;5088647;28;20202;-77
2024/01/06 08:15:50;;;;;;;27.53;17.17;;;2.00;99.90;;;;;;5088985;28;20305;-77
2024/01/06 08:18:18;;;;;;;30.13;17.80;;;2.00;99.90;;;;;;5088790;28;20231;-78
2024/01/06 08:20:44;;;;;;;30.80;17.70;;;2.00;99.90;;;;;;5088233;28;20203;-78
2024/01/06 08:23:13;;;;;;;30.30;18.37;;;2.00;99.90;;;;;;5087864;28;20293;-78
2024/01/06 08:25:40;;;;;;;29.00;17.93;;;2.00;99.90;;;;;;5088786;28;20230;-77
2024/01/06 08:28:07;;;;;;;32.73;18.33;;;2.00;99.90;;;;;;5088887;28;20637;-77
2024/01/06 08:30:33;;;;;;;30.87;17.97;;;1.90;99.90;;;;;;5088270;28;20311;-77
2024/01/06 08:33:01;;;;;;;27.57;17.90;;;1.90;99.90;;;;;;5087353;28;20245;-77
2024/01/06 08:35:28;;;;;;;33.63;19.10;;;1.90;99.90;;;;;;5088600;28;20207;-78
2024/01/06 08:37:55;;;;;;;29.57;17.47;;;1.90;99.90;;;;;;5088413;28;20237;-77
2024/01/06 08:40:23;;;;;;;27.87;17.30;;;1.90;99.90;;;;;;5088419;28;20238;-77
2024/01/06 08:42:50;;;;;;;31.47;17.97;;;1.90;99.90;;;;;;5088439;28;20210;-77
2024/01/06 08:45:17;;;;;;;36.70;19.13;;;2.00;99.90;;;;;;5088111;28;20286;-78
2024/01/06 08:47:44;;;;;;;36.03;18.73;;;2.00;99.90;;;;;;5087317;28;20633;-79
2024/01/06 08:50:11;;;;;;;31.07;18.17;;;2.00;99.90;;;;;;5088114;28;20301;-77
2024/01/06 08:52:38;;;;;;;31.87;18.50;;;2.00;99.90;;;;;;5087556;28;20297;-78
2024/01/06 08:55:06;;;;;;;33.43;17.67;;;2.00;99.90;;;;;;5088065;28;20861;-78
2024/01/06 08:57:34;;;;;;;33.17;19.27;;;2.00;99.90;;;;;;5088188;28;20442;-78
2024/01/06 09:00:01;;;;;;;28.27;16.87;;;2.00;99.90;;;;;;5088027;28;20309;-78
2024/01/06 09:02:28;;;;;;;29.83;17.33;;;1.90;99.90;;;;;;5087596;28;20325;-79
2024/01/06 09:04:55;;;;;;;30.17;18.67;;;1.90;99.90;;;;;;5087788;28;20207;-78
2024/01/06 09:07:22;;;;;;;31.67;18.20;;;1.90;99.90;;;;;;5087711;28;20229;-78
2024/01/06 09:09:48;;;;;;;27.63;16.53;;;1.90;99.90;;;;;;5087953;28;20332;-77
2024/01/06 09:12:15;;;;;;;29.07;17.53;;;1.90;99.90;;;;;;5087812;28;20289;-78
2024/01/06 09:14:43;;;;;;;28.37;17.57;;;1.80;99.90;;;;;;5088031;28;20310;-78
2024/01/06 09:17:11;;;;;;;28.90;17.70;;;1.80;99.90;;;;;;5086967;28;20317;-78
2024/01/06 09:19:37;;;;;;;30.53;18.03;;;1.80;99.90;;;;;;5087499;28;20289;-78
2024/01/06 09:22:05;;;;;;;29.60;17.60;;;1.90;99.90;;;;;;5087297;28;20662;-77
2024/01/06 09:24:33;;;;;;;27.67;16.93;;;1.90;99.90;;;;;;5084929;28;20202;-78
2024/01/06 09:27:00;;;;;;;30.77;18.17;;;1.80;99.90;;;;;;5085624;28;20676;-78
2024/01/06 09:29:27;;;;;;;29.47;17.17;;;1.80;99.90;;;;;;5087259;28;20233;-78
2024/01/06 09:31:55;;;;;;;29.93;17.23;;;1.80;99.90;;;;;;5087114;28;20650;-78
2024/01/06 09:34:22;;;;;;;30.70;17.37;;;1.70;99.90;;;;;;5087059;28;20289;-78
2024/01/06 09:36:49;;;;;;;30.33;18.13;;;1.70;99.90;;;;;;5086808;28;20205;-80
2024/01/06 09:39:18;;;;;;;31.00;17.40;;;1.70;99.90;;;;;;5084507;28;20218;-78
2024/01/06 09:41:45;;;;;;;26.97;17.20;;;1.70;99.90;;;;;;5087034;28;20285;-78
2024/01/06 09:44:12;;;;;;;27.13;17.33;;;1.70;99.90;;;;;;5084421;28;20290;-78
2024/01/06 09:46:40;;;;;;;28.20;17.40;;;1.80;99.90;;;;;;5087135;28;20286;-79
2024/01/06 09:49:09;;;;;;;26.37;16.73;;;1.70;99.90;;;;;;5087254;28;20289;-78
2024/01/06 09:51:40;;;;;;;26.80;16.80;;;1.60;99.90;;;;;;5087458;28;20777;-78
2024/01/06 09:54:10;;;;;;;26.50;16.30;;;1.60;99.90;;;;;;5086791;28;20191;-78
2024/01/06 09:56:38;;;;;;;28.00;17.23;;;1.60;99.90;;;;;;5087368;28;20194;-78
2024/01/06 09:59:04;;;;;;;27.73;17.67;;;1.70;99.90;;;;;;5087210;28;20711;-77
2024/01/06 10:01:31;;;;;;;28.30;16.77;;;1.70;99.90;;;;;;5085269;28;20229;-78
2024/01/06 10:03:58;;;;;;;30.87;17.60;;;1.70;99.90;;;;;;5090670;28;20289;-78
2024/01/06 10:06:27;;;;;;;27.50;16.30;;;1.70;99.90;;;;;;5090333;28;20295;-79
2024/01/06 10:08:54;;;;;;;30.60;18.00;;;1.70;99.90;;;;;;5085172;28;20230;-78
2024/01/06 10:11:23;;;;;;;33.50;19.33;;;1.70;99.90;;;;;;5090944;28;20195;-78
2024/01/06 10:13:51;;;;;;;28.87;18.60;;;1.80;99.90;;;;;;5090636;28;20290;-78
2024/01/06 10:16:18;;;;;;;33.17;18.87;;;1.70;99.90;;;;;;5090698;28;20201;-78
2024/01/06 10:18:45;;;;;;;29.93;18.47;;;1.70;99.90;;;;;;5090559;28;20657;-78
2024/01/06 10:21:13;;;;;;;28.83;18.43;;;1.70;99.90;;;;;;5085572;28;20285;-78
2024/01/06 10:23:42;;;;;;;28.13;17.30;;;1.70;99.90;;;;;;5090599;28;20195;-78
2024/01/06 10:26:13;;;;;;;29.53;18.03;;;1.70;99.90;;;;;;5090281;28;20657;-77
2024/01/06 10:28:41;;;;;;;30.20;18.47;;;1.70;99.90;;;;;;5090574;28;20191;-78
2024/01/06 10:31:09;;;;;;;30.30;18.00;;;1.70;99.90;;;;;;5090152;28;20203;-78
2024/01/06 10:33:37;;;;;;;28.90;17.93;;;1.70;99.90;;;;;;5090358;28;20203;-78
2024/01/06 10:36:05;;;;;;;26.17;17.33;;;1.70;99.90;;;;;;5090247;28;20293;-78
2024/01/06 10:38:32;;;;;;;27.07;17.13;;;1.70;99.90;;;;;;5087372;28;20218;-78
2024/01/06 10:41:02;;;;;;;25.20;17.37;;;1.70;99.90;;;;;;5090314;28;20291;-78
2024/01/06 10:43:30;;;;;;;28.60;17.23;;;1.70;99.90;;;;;;5090401;28;20192;-78
2024/01/06 10:45:59;;;;;;;27.53;17.40;;;1.70;99.90;;;;;;5090396;28;20281;-78
2024/01/06 10:48:26;;;;;;;27.73;17.63;;;1.70;99.90;;;;;;5089861;28;20199;-78
2024/01/06 10:50:54;;;;;;;25.43;18.03;;;1.70;99.90;;;;;;5087941;28;20282;-79
2024/01/06 10:53:23;;;;;;;27.70;17.57;;;1.70;99.90;;;;;;5089965;28;20249;-78
2024/01/06 10:55:52;;;;;;;25.87;16.70;;;1.70;99.90;;;;;;5089716;28;20741;-78
2024/01/06 10:58:20;;;;;;;26.47;17.30;;;1.70;99.90;;;;;;5089801;28;20688;-78
2024/01/06 11:00:48;;;;;;;26.23;17.83;;;1.60;99.90;;;;;;5089809;28;20627;-78
2024/01/06 11:03:15;;;;;;;29.03;17.10;;;1.70;99.90;;;;;;5089385;28;20206;-78
2024/01/06 11:05:43;;;;;;;26.23;17.87;;;1.70;99.90;;;;;;5089504;28;20256;-78
2024/01/06 11:08:11;;;;;;;27.37;17.77;;;1.60;99.90;;;;;;5088013;28;20206;-78
2024/01/06 11:10:40;;;;;;;28.73;17.90;;;1.50;99.90;;;;;;5084723;28;20187;-78
2024/01/06 11:13:11;;;;;;;28.23;16.40;;;1.60;99.90;;;;;;5088818;28;20683;-78
2024/01/06 11:15:44;;;;;;;21.97;15.60;;;1.60;99.90;;;;;;5089278;28;20187;-78
2024/01/06 11:18:31;;;;;;;26.20;16.40;;;1.60;99.90;;;;;;5086173;28;20662;-78
2024/01/06 11:21:21;;;;;;;24.23;16.20;;;1.60;99.90;;;;;;5089799;28;20201;-78
2024/01/06 11:24:10;;;;;;;25.83;16.47;;;1.60;99.90;;;;;;5082846;28;20779;-79
2024/01/06 11:26:40;;;;;;;24.70;16.63;;;1.60;99.90;;;;;;5087766;28;20548;-79
2024/01/06 11:29:08;;;;;;;19.93;15.30;;;1.60;99.90;;;;;;5088718;28;21478;-78
2024/01/06 11:31:37;;;;;;;27.23;16.87;;;1.60;99.90;;;;;;5086255;28;20635;-78
2024/01/06 11:34:15;;;;;;;24.80;17.30;;;1.60;99.90;;;;;;5088560;28;20230;-79
2024/01/06 11:36:45;;;;;;;24.07;16.13;;;1.60;99.90;;;;;;5088909;28;20282;-78
2024/01/06 11:39:36;;;;;;;22.63;14.53;;;1.60;99.90;;;;;;5088693;28;20229;-78
2024/01/06 11:42:04;;;;;;;20.93;15.33;;;1.60;99.90;;;;;;5087904;28;20190;-78
2024/01/06 11:44:34;;;;;;;24.23;15.97;;;1.50;99.90;;;;;;5089068;28;20301;-79
2024/01/06 11:47:05;;;;;;;20.77;15.13;;;1.50;99.90;;;;;;5089386;28;20229;-79
2024/01/06 11:49:31;;;;;;;24.00;15.03;;;1.50;99.90;;;;;;5088854;28;20293;-78
2024/01/06 11:51:59;;;;;;;21.70;15.53;;;1.50;99.90;;;;;;5089167;28;20759;-78
2024/01/06 11:54:26;;;;;;;22.07;15.03;;;1.40;99.90;;;;;;5088806;28;20659;-78
2024/01/06 11:56:53;;;;;;;20.43;14.73;;;1.40;99.90;;;;;;5089044;28;20666;-77
2024/01/06 11:59:20;;;;;;;23.30;15.27;;;1.30;99.90;;;;;;5085092;28;20298;-77
2024/01/06 12:01:47;;;;;;;22.63;14.63;;;1.40;99.90;;;;;;5089109;28;20289;-77
2024/01/06 12:04:16;;;;;;;20.43;14.87;;;1.40;99.90;;;;;;5088842;28;20242;-77
2024/01/06 12:06:43;;;;;;;24.00;15.47;;;1.40;99.90;;;;;;5088607;28;20253;-78
2024/01/06 12:09:15;;;;;;;21.37;15.50;;;1.40;99.90;;;;;;5088038;28;20840;-78
2024/01/06 12:11:44;;;;;;;19.53;14.77;;;1.40;99.90;;;;;;5088673;28;20194;-76
2024/01/06 12:14:11;;;;;;;24.30;17.37;;;1.50;99.90;;;;;;5088426;28;20207;-77
2024/01/06 12:16:38;;;;;;;24.27;17.13;;;1.50;99.90;;;;;;5088742;28;20302;-78
2024/01/06 12:19:05;;;;;;;20.27;15.77;;;1.50;99.90;;;;;;5088441;28;20761;-77
2024/01/06 12:21:37;;;;;;;25.23;16.80;;;1.50;99.90;;;;;;5088831;28;20556;-78
2024/01/06 12:24:21;;;;;;;24.83;17.17;;;1.50;99.90;;;;;;5088301;28;20202;-78
2024/01/06 12:26:48;;;;;;;23.23;16.23;;;1.50;99.90;;;;;;5086472;28;20210;-78
2024/01/06 12:29:15;;;;;;;20.80;15.37;;;1.60;99.90;;;;;;5086399;28;20696;-78
2024/01/06 12:31:42;;;;;;;22.67;16.37;;;1.60;99.90;;;;;;5080651;28;20290;-79
2024/01/06 12:34:10;;;;;;;23.83;17.07;;;1.60;99.90;;;;;;5081402;28;20215;-78
2024/01/06 12:36:39;;;;;;;21.20;15.70;;;1.60;99.90;;;;;;5077467;28;20593;-77
2024/01/06 12:39:09;;;;;;;21.87;15.10;;;1.50;99.90;;;;;;5085870;28;20237;-77